createdAt,value
2022-11-09T00:01:34.401Z,12.72
2022-11-09T00:04:03.164Z,12.67
2022-11-09T00:06:31.039Z,12.55
2022-11-09T00:09:02.640Z,12.39
2022-11-09T00:11:32.638Z,12.34
2022-11-09T00:13:59.302Z,12.28
2022-11-09T00:16:25.929Z,12.32
2022-11-09T00:18:53.876Z,12.46
2022-11-09T00:21:23.704Z,12.53
2022-11-09T00:23:51.181Z,12.68
2022-11-09T00:26:18.878Z,12.76
2022-11-09T00:28:45.735Z,12.73
2022-11-09T00:31:15.349Z,12.87
2022-11-09T00:33:42.292Z,12.87
2022-11-09T00:36:15.480Z,12.78
2022-11-09T00:38:42.698Z,12.77
2022-11-09T00:41:11.177Z,12.74
2022-11-09T00:43:38.226Z,12.67
2022-11-09T00:46:06.146Z,12.60
2022-11-09T00:48:33.622Z,12.53
2022-11-09T00:51:02.033Z,12.47
2022-11-09T00:53:30.153Z,12.44
2022-11-09T00:56:02.244Z,12.43
2022-11-09T00:58:31.346Z,12.43
2022-11-09T01:01:00.240Z,12.30
2022-11-09T01:03:27.250Z,12.27
2022-11-09T01:05:53.854Z,12.22
2022-11-09T01:08:20.563Z,12.28
2022-11-09T01:10:48.633Z,12.35
2022-11-09T01:13:17.709Z,12.35
2022-11-09T01:15:47.207Z,12.49
2022-11-09T01:18:15.868Z,12.56
2022-11-09T01:20:44.626Z,12.64
2022-11-09T01:23:12.933Z,12.58
2022-11-09T01:25:40.160Z,12.52
2022-11-09T01:28:09.966Z,12.42
2022-11-09T01:30:38.563Z,12.47
2022-11-09T01:33:06.528Z,12.38
2022-11-09T01:35:38.189Z,12.39
2022-11-09T01:38:06.588Z,12.37
2022-11-09T01:40:34.963Z,12.40
2022-11-09T01:43:19.705Z,12.34
2022-11-09T01:45:51.386Z,12.43
2022-11-09T01:48:24.200Z,12.44
2022-11-09T01:51:01.581Z,12.41
2022-11-09T01:53:31.722Z,12.44
2022-11-09T01:56:02.892Z,12.37
2022-11-09T01:58:36.098Z,12.47
2022-11-09T02:01:03.174Z,12.61
2022-11-09T02:03:37.730Z,12.52
2022-11-09T02:06:07.990Z,12.45
2022-11-09T02:08:35.677Z,12.34
2022-11-09T02:11:14.060Z,12.43
2022-11-09T02:13:51.583Z,12.33
2022-11-09T02:16:18.837Z,12.42
2022-11-09T02:18:57.599Z,12.53
2022-11-09T02:21:28.359Z,12.61
2022-11-09T02:23:55.113Z,12.56
2022-11-09T02:26:44.021Z,12.54
2022-11-09T02:29:15.863Z,12.46
2022-11-09T02:31:47.920Z,12.53
2022-11-09T02:34:18.519Z,12.54
2022-11-09T02:36:45.619Z,12.55
2022-11-09T02:39:20.758Z,12.46
2022-11-09T02:41:51.714Z,12.41
2022-11-09T02:44:19.406Z,12.38
2022-11-09T02:46:46.593Z,12.41
2022-11-09T02:49:14.437Z,12.47
2022-11-09T02:51:41.159Z,12.44
2022-11-09T02:54:07.856Z,12.50
2022-11-09T02:56:34.827Z,12.45
2022-11-09T02:59:03.353Z,12.48
2022-11-09T03:01:31.326Z,12.49
2022-11-09T03:03:58.057Z,12.56
2022-11-09T03:06:34.578Z,12.45
2022-11-09T03:09:06.420Z,12.48
2022-11-09T03:11:34.134Z,12.56
2022-11-09T03:14:00.813Z,12.54
2022-11-09T03:16:28.708Z,12.48
2022-11-09T03:18:58.155Z,12.51
2022-11-09T03:21:25.458Z,12.61
2022-11-09T03:23:52.745Z,12.59
2022-11-09T03:26:19.331Z,12.56
2022-11-09T03:28:46.188Z,12.58
2022-11-09T03:31:13.356Z,12.66
2022-11-09T03:33:40.011Z,12.68
2022-11-09T03:36:09.640Z,12.63
2022-11-09T03:38:37.339Z,12.62
2022-11-09T03:41:04.086Z,12.59
2022-11-09T03:43:32.070Z,12.53
2022-11-09T03:45:58.716Z,12.57
2022-11-09T03:48:25.323Z,12.61
2022-11-09T03:50:51.900Z,12.67
2022-11-09T03:53:19.785Z,12.65
2022-11-09T03:55:46.505Z,12.59
2022-11-09T03:58:15.878Z,12.60
2022-11-09T04:00:42.585Z,12.60
2022-11-09T04:03:09.160Z,12.67
2022-11-09T04:05:36.039Z,12.62
2022-11-09T04:08:02.616Z,12.65
2022-11-09T04:10:29.235Z,12.60
2022-11-09T04:12:55.908Z,12.68
2022-11-09T04:15:22.912Z,12.64
2022-11-09T04:18:01.771Z,12.62
2022-11-09T04:20:30.446Z,12.65
2022-11-09T04:23:02.166Z,12.62
2022-11-09T04:25:32.917Z,12.59
2022-11-09T04:28:00.619Z,12.61
2022-11-09T04:30:28.913Z,12.59
2022-11-09T04:32:59.896Z,12.67
2022-11-09T04:35:28.315Z,12.74
2022-11-09T04:37:58.994Z,12.68
2022-11-09T04:40:28.213Z,12.69
2022-11-09T04:42:55.376Z,12.68
2022-11-09T04:45:22.499Z,12.72
2022-11-09T04:47:49.173Z,12.65
2022-11-09T04:50:15.970Z,12.70
2022-11-09T04:52:42.557Z,12.71
2022-11-09T04:55:09.482Z,12.69
2022-11-09T04:57:36.119Z,12.70
2022-11-09T05:00:03.155Z,12.71
2022-11-09T05:02:29.845Z,12.62
2022-11-09T05:04:56.468Z,12.65
2022-11-09T05:07:25.948Z,12.59
2022-11-09T05:09:52.674Z,12.61
2022-11-09T05:12:19.312Z,12.66
2022-11-09T05:14:45.968Z,12.67
2022-11-09T05:17:12.590Z,12.62
2022-11-09T05:19:39.156Z,12.59
2022-11-09T05:22:24.153Z,12.57
2022-11-09T05:24:51.933Z,12.61
2022-11-09T05:27:18.780Z,12.75
2022-11-09T05:29:45.392Z,12.66
2022-11-09T05:32:11.994Z,12.64
2022-11-09T05:34:38.706Z,12.77
2022-11-09T05:37:05.267Z,12.86
2022-11-09T05:39:31.923Z,12.80
2022-11-09T05:41:58.467Z,12.82
2022-11-09T05:44:25.654Z,12.76
2022-11-09T05:46:52.247Z,12.75
2022-11-09T05:49:18.807Z,12.82
2022-11-09T05:51:45.510Z,12.71
2022-11-09T05:54:12.138Z,12.81
2022-11-09T05:56:38.747Z,12.78
2022-11-09T05:59:05.366Z,12.79
2022-11-09T06:01:31.955Z,12.72
2022-11-09T06:03:58.568Z,12.71
2022-11-09T06:06:25.337Z,12.86
2022-11-09T06:08:51.946Z,12.85
2022-11-09T06:11:23.523Z,12.78
2022-11-09T06:13:52.113Z,12.84
2022-11-09T06:16:18.751Z,12.81
2022-11-09T06:18:45.303Z,12.80
2022-11-09T06:21:11.992Z,12.78
2022-11-09T06:23:38.555Z,12.87
2022-11-09T06:26:07.390Z,12.87
2022-11-09T06:28:34.802Z,12.86
2022-11-09T06:31:02.833Z,12.85
2022-11-09T06:33:34.230Z,12.79
2022-11-09T06:36:01.816Z,12.79
2022-11-09T06:38:28.860Z,12.78
2022-11-09T06:40:58.157Z,12.84
2022-11-09T06:43:25.750Z,12.83
2022-11-09T06:45:52.687Z,12.82
2022-11-09T06:48:20.119Z,12.80
2022-11-09T06:50:47.118Z,12.81
2022-11-09T06:53:16.073Z,12.76
2022-11-09T06:55:49.054Z,12.80
2022-11-09T06:58:17.560Z,12.88
2022-11-09T07:00:45.114Z,12.84
2022-11-09T07:03:20.243Z,12.82
2022-11-09T07:05:48.325Z,12.88
2022-11-09T07:08:16.268Z,12.87
2022-11-09T07:10:43.202Z,12.87
2022-11-09T07:13:10.724Z,12.89
2022-11-09T07:15:38.399Z,12.90
2022-11-09T07:18:06.834Z,12.93
2022-11-09T07:20:34.318Z,12.90
2022-11-09T07:23:00.918Z,12.93
2022-11-09T07:25:27.624Z,12.98
2022-11-09T07:27:54.337Z,12.98
2022-11-09T07:30:21.340Z,12.97
2022-11-09T07:35:34.691Z,12.93
2022-11-09T07:38:01.967Z,12.92
2022-11-09T07:40:29.696Z,12.87
2022-11-09T07:43:04.786Z,12.82
2022-11-09T07:45:33.035Z,12.81
2022-11-09T07:48:02.025Z,12.88
2022-11-09T07:50:30.132Z,12.86
2022-11-09T07:52:58.033Z,12.87
2022-11-09T07:55:25.567Z,12.93
2022-11-09T07:57:58.825Z,13.03
2022-11-09T08:00:27.201Z,13.07
2022-11-09T08:02:54.481Z,13.06
2022-11-09T08:05:21.767Z,13.12
2022-11-09T08:07:48.443Z,13.16
2022-11-09T08:10:15.652Z,13.66
2022-11-09T08:12:42.182Z,13.89
2022-11-09T08:15:09.374Z,13.68
2022-11-09T08:17:36.018Z,13.72
2022-11-09T08:20:03.013Z,13.95
2022-11-09T08:22:29.676Z,14.10
2022-11-09T08:24:56.457Z,14.31
2022-11-09T08:27:23.495Z,14.55
2022-11-09T08:29:50.129Z,14.44
2022-11-09T08:32:16.719Z,14.42
2022-11-09T08:34:47.548Z,14.38
2022-11-09T08:37:15.543Z,14.60
2022-11-09T08:39:42.151Z,14.62
2022-11-09T08:42:08.766Z,14.69
2022-11-09T08:44:35.318Z,14.58
2022-11-09T08:47:02.228Z,14.62
2022-11-09T08:49:28.925Z,14.91
2022-11-09T08:51:55.571Z,14.57
2022-11-09T08:54:22.214Z,14.90
2022-11-09T08:56:48.808Z,14.66
2022-11-09T08:59:18.286Z,14.51
2022-11-09T09:01:44.916Z,14.51
2022-11-09T09:04:11.597Z,14.52
2022-11-09T09:06:38.292Z,14.41
2022-11-09T09:09:05.040Z,14.50
2022-11-09T09:11:31.734Z,14.53
2022-11-09T09:13:58.354Z,14.58
2022-11-09T09:16:25.225Z,14.55
2022-11-09T09:18:51.995Z,14.44
2022-11-09T09:21:18.587Z,14.58
2022-11-09T09:23:48.243Z,14.66
2022-11-09T09:26:15.480Z,14.87
2022-11-09T09:28:42.124Z,14.97
2022-11-09T09:31:11.115Z,14.89
2022-11-09T09:33:40.153Z,14.74
2022-11-09T09:36:07.037Z,14.64
2022-11-09T09:38:33.618Z,14.43
2022-11-09T09:41:02.696Z,14.74
2022-11-09T09:43:44.245Z,14.82
2022-11-09T09:46:32.652Z,15.33
2022-11-09T09:49:07.364Z,15.32
2022-11-09T09:51:39.785Z,15.51
2022-11-09T09:54:20.197Z,15.58
2022-11-09T09:56:50.605Z,15.46
2022-11-09T09:59:42.897Z,15.73
2022-11-09T10:02:30.538Z,15.83
2022-11-09T10:05:12.111Z,16.15
2022-11-09T10:07:53.822Z,16.08
2022-11-09T10:10:44.584Z,15.96
2022-11-09T10:13:42.011Z,15.34
2022-11-09T10:16:32.823Z,15.23
2022-11-09T10:19:29.389Z,15.53
2022-11-09T10:22:27.580Z,15.88
2022-11-09T10:28:01.113Z,16.19
2022-11-09T10:30:29.381Z,16.17
2022-11-09T10:33:11.313Z,16.34
2022-11-09T10:35:45.159Z,15.99
2022-11-09T10:38:21.087Z,16.05
2022-11-09T10:41:23.841Z,16.04
2022-11-09T10:44:18.054Z,16.04
2022-11-09T10:47:03.378Z,15.97
2022-11-09T10:50:07.333Z,15.64
2022-11-09T10:52:52.389Z,15.71
2022-11-09T10:55:37.851Z,15.47
2022-11-09T10:58:39.955Z,15.42
2022-11-09T11:01:26.471Z,15.50
2022-11-09T11:04:24.682Z,15.40
2022-11-09T11:07:21.826Z,15.13
2022-11-09T11:10:17.741Z,15.09
2022-11-09T11:13:06.149Z,15.04
2022-11-09T11:15:51.830Z,15.05
2022-11-09T11:18:36.910Z,15.06
2022-11-09T11:21:23.734Z,15.13
2022-11-09T11:24:14.944Z,14.81
2022-11-09T11:27:10.419Z,14.81
2022-11-09T11:30:05.336Z,14.49
2022-11-09T11:32:51.186Z,14.34
2022-11-09T11:35:43.258Z,14.11
2022-11-09T11:38:35.281Z,13.95
2022-11-09T11:41:42.734Z,13.65
2022-11-09T11:45:03.191Z,13.85
2022-11-09T11:48:01.071Z,14.08
2022-11-09T11:50:55.327Z,14.10
2022-11-09T11:53:59.379Z,14.16
2022-11-09T11:56:55.614Z,14.20
2022-11-09T12:00:01.932Z,14.20
2022-11-09T12:03:01.941Z,14.15
2022-11-09T12:06:43.804Z,14.18
2022-11-09T12:09:48.387Z,14.32
2022-11-09T12:13:00.007Z,14.14
2022-11-09T12:15:54.245Z,14.09
2022-11-09T12:18:48.913Z,14.12
2022-11-09T12:21:40.412Z,14.28
2022-11-09T12:25:03.356Z,14.43
2022-11-09T12:28:14.693Z,14.37
2022-11-09T12:31:35.314Z,14.23
2022-11-09T12:34:29.325Z,14.20
2022-11-09T12:37:20.105Z,14.22
2022-11-09T12:40:21.654Z,14.05
2022-11-09T12:43:19.732Z,14.12
2022-11-09T12:46:06.545Z,14.26
2022-11-09T12:48:54.493Z,14.28
2022-11-09T12:51:39.953Z,14.18
2022-11-09T12:54:26.101Z,14.29
2022-11-09T12:57:16.181Z,14.26
2022-11-09T13:00:01.729Z,14.31
2022-11-09T13:02:56.564Z,14.18
2022-11-09T13:05:43.173Z,14.28
2022-11-09T13:08:30.771Z,14.31
2022-11-09T13:11:22.516Z,14.33
2022-11-09T13:14:22.794Z,14.32
2022-11-09T13:17:26.277Z,14.30
2022-11-09T13:20:53.827Z,14.21
2022-11-09T13:26:48.634Z,14.27
2022-11-09T13:29:39.569Z,14.18
2022-11-09T13:32:30.033Z,14.27
2022-11-09T13:35:39.926Z,14.24
2022-11-09T13:38:32.889Z,14.29
2022-11-09T13:41:31.888Z,14.19
2022-11-09T13:44:25.311Z,14.12
2022-11-09T13:47:26.056Z,14.15
2022-11-09T13:50:18.801Z,14.14
2022-11-09T13:53:04.077Z,14.14
2022-11-09T13:55:49.017Z,14.08
2022-11-09T13:58:37.505Z,13.95
2022-11-09T14:01:36.994Z,13.97
2022-11-09T14:04:35.576Z,13.94
2022-11-09T14:07:27.300Z,13.89
2022-11-09T14:10:21.495Z,13.87
2022-11-09T14:13:25.501Z,13.89
2022-11-09T14:16:13.410Z,13.87
2022-11-09T14:18:58.746Z,13.88
2022-11-09T14:21:46.030Z,13.88
2022-11-09T14:24:34.934Z,13.85
2022-11-09T14:27:22.492Z,13.86
2022-11-09T14:30:19.101Z,13.68
2022-11-09T14:33:20.842Z,13.74
2022-11-09T14:36:06.442Z,13.70
2022-11-09T14:38:51.579Z,13.62
2022-11-09T14:41:37.118Z,13.75
2022-11-09T14:44:35.733Z,13.71
2022-11-09T14:47:28.849Z,13.70
2022-11-09T14:50:18.985Z,13.65
2022-11-09T14:53:05.807Z,13.65
2022-11-09T14:55:52.386Z,13.64
2022-11-09T14:58:41.371Z,13.70
2022-11-09T15:01:27.343Z,13.56
2022-11-09T15:04:21.329Z,13.46
2022-11-09T15:07:07.024Z,13.39
2022-11-09T15:09:57.499Z,13.39
2022-11-09T15:12:51.712Z,13.39
2022-11-09T15:15:38.437Z,13.35
2022-11-09T15:18:33.939Z,13.16
2022-11-09T15:21:32.223Z,13.22
2022-11-09T15:24:19.584Z,13.15
2022-11-09T15:27:35.394Z,13.12
2022-11-09T15:30:53.723Z,12.99
2022-11-09T15:33:52.380Z,12.95
2022-11-09T15:36:39.760Z,13.00
2022-11-09T15:39:27.218Z,12.93
2022-11-09T15:42:13.801Z,13.00
2022-11-09T15:45:00.323Z,13.03
2022-11-09T15:47:55.382Z,13.11
2022-11-09T15:50:40.868Z,13.12
2022-11-09T15:53:26.722Z,13.08
2022-11-09T15:56:24.157Z,13.13
2022-11-09T15:59:25.338Z,13.01
2022-11-09T16:02:15.108Z,12.90
2022-11-09T16:05:00.460Z,12.92
2022-11-09T16:07:53.207Z,12.79
2022-11-09T16:10:40.469Z,12.79
2022-11-09T16:13:25.680Z,12.79
2022-11-09T16:16:12.674Z,12.79
2022-11-09T16:18:58.182Z,12.74
2022-11-09T16:21:43.428Z,12.72
2022-11-09T16:24:29.450Z,12.69
2022-11-09T16:27:42.912Z,12.58
2022-11-09T16:30:21.147Z,12.55
2022-11-09T16:33:06.514Z,12.50
2022-11-09T16:35:53.519Z,12.51
2022-11-09T16:38:51.599Z,12.51
2022-11-09T16:41:40.860Z,12.42
2022-11-09T16:44:26.262Z,12.41
2022-11-09T16:47:14.532Z,12.38
2022-11-09T16:49:59.567Z,12.43
2022-11-09T16:52:45.235Z,12.37
2022-11-09T16:55:30.664Z,12.41
2022-11-09T16:58:16.075Z,12.43
2022-11-09T17:01:11.459Z,12.33
2022-11-09T17:03:57.952Z,12.31
2022-11-09T17:06:43.358Z,12.26
2022-11-09T17:09:33.833Z,12.26
2022-11-09T17:12:19.051Z,12.25
2022-11-09T17:15:04.362Z,12.19
2022-11-09T17:17:49.997Z,12.23
2022-11-09T17:20:34.876Z,12.20
2022-11-09T17:23:19.975Z,12.27
2022-11-09T17:26:07.165Z,12.20
2022-11-09T17:28:52.741Z,12.20
2022-11-09T17:31:38.414Z,12.21
2022-11-09T17:34:23.496Z,12.10
2022-11-09T17:37:08.847Z,12.18
2022-11-09T17:39:53.674Z,12.25
2022-11-09T17:42:38.785Z,12.14
2022-11-09T17:45:23.883Z,12.23
2022-11-09T17:48:08.872Z,12.18
2022-11-09T17:50:53.891Z,12.12
2022-11-09T17:53:39.732Z,12.15
2022-11-09T17:56:25.433Z,12.03
2022-11-09T17:59:11.413Z,12.06
2022-11-09T18:01:56.927Z,11.99
2022-11-09T18:04:42.163Z,11.88
2022-11-09T18:07:27.777Z,11.93
2022-11-09T18:10:12.941Z,11.94
2022-11-09T18:12:57.905Z,11.76
2022-11-09T18:15:43.191Z,11.78
2022-11-09T18:18:29.246Z,11.86
2022-11-09T18:21:19.642Z,11.79
2022-11-09T18:24:05.474Z,11.76
2022-11-09T18:26:50.764Z,11.72
2022-11-09T18:29:35.861Z,11.82
2022-11-09T18:32:21.120Z,11.74
2022-11-09T18:35:06.884Z,11.72
2022-11-09T18:37:52.293Z,11.72
2022-11-09T18:40:37.506Z,11.74
2022-11-09T18:43:23.020Z,11.66
2022-11-09T18:46:11.235Z,11.71
2022-11-09T18:48:56.514Z,11.64
2022-11-09T18:51:42.688Z,11.56
2022-11-09T18:54:28.443Z,11.52
2022-11-09T18:57:18.596Z,11.49
2022-11-09T19:00:05.594Z,11.47
2022-11-09T19:02:51.051Z,11.40
2022-11-09T19:05:39.506Z,11.37
2022-11-09T19:08:43.300Z,11.40
2022-11-09T19:11:30.216Z,11.44
2022-11-09T19:14:15.700Z,11.41
2022-11-09T19:17:01.067Z,11.35
2022-11-09T19:19:46.408Z,11.41
2022-11-09T19:22:31.579Z,11.39
2022-11-09T19:25:16.713Z,11.52
2022-11-09T19:28:02.138Z,11.57
2022-11-09T19:30:47.532Z,11.57
2022-11-09T19:33:32.727Z,11.53
2022-11-09T19:36:34.061Z,11.48
2022-11-09T19:39:19.246Z,11.41
2022-11-09T19:42:04.656Z,11.40
2022-11-09T19:44:55.162Z,11.40
2022-11-09T19:47:42.067Z,11.29
2022-11-09T19:50:27.445Z,11.39
2022-11-09T19:53:12.376Z,11.35
2022-11-09T19:56:07.067Z,11.28
2022-11-09T19:58:54.731Z,11.37
2022-11-09T20:01:40.201Z,11.36
2022-11-09T20:04:25.616Z,11.42
2022-11-09T20:07:10.646Z,11.43
2022-11-09T20:09:56.089Z,11.41
2022-11-09T20:12:50.417Z,11.27
2022-11-09T20:15:36.407Z,11.21
2022-11-09T20:18:23.944Z,11.19
2022-11-09T20:21:09.133Z,11.16
2022-11-09T20:23:54.870Z,11.15
2022-11-09T20:26:42.342Z,11.19
2022-11-09T20:29:27.400Z,11.14
2022-11-09T20:32:12.613Z,11.11
2022-11-09T20:34:57.712Z,11.13
2022-11-09T20:37:42.713Z,11.06
2022-11-09T20:40:27.879Z,10.96
2022-11-09T20:43:12.976Z,10.90
2022-11-09T20:46:14.168Z,10.92
2022-11-09T20:49:01.252Z,10.93
2022-11-09T20:51:46.845Z,10.82
2022-11-09T20:54:32.090Z,10.78
2022-11-09T20:57:17.012Z,10.68
2022-11-09T21:00:02.296Z,10.68
2022-11-09T21:02:48.223Z,10.63
2022-11-09T21:05:33.510Z,10.61
2022-11-09T21:08:19.046Z,10.70
2022-11-09T21:11:06.251Z,10.78
2022-11-09T21:13:52.102Z,10.69
2022-11-09T21:16:37.055Z,10.70
2022-11-09T21:19:21.945Z,10.77
2022-11-09T21:22:07.288Z,10.78
2022-11-09T21:25:11.124Z,10.81
2022-11-09T21:28:15.176Z,10.84
2022-11-09T21:31:02.154Z,10.85
2022-11-09T21:33:47.115Z,10.82
2022-11-09T21:36:31.940Z,10.86
2022-11-09T21:39:17.189Z,10.85
2022-11-09T21:42:03.383Z,10.77
2022-11-09T21:44:48.478Z,10.78
2022-11-09T21:47:33.409Z,10.73
2022-11-09T21:50:18.451Z,10.70
2022-11-09T21:53:03.854Z,10.72
2022-11-09T21:55:49.012Z,10.73
2022-11-09T21:58:34.506Z,10.74
2022-11-09T22:01:19.887Z,10.82
2022-11-09T22:04:05.372Z,10.83
2022-11-09T22:06:50.597Z,10.80
2022-11-09T22:10:05.902Z,10.83
2022-11-09T22:13:00.316Z,10.84
2022-11-09T22:16:04.483Z,10.78
2022-11-09T22:19:08.521Z,10.71
2022-11-09T22:21:53.626Z,10.74
2022-11-09T22:24:38.620Z,10.77
2022-11-09T22:27:23.851Z,10.70
2022-11-09T22:30:09.547Z,10.67
2022-11-09T22:32:54.891Z,10.58
2022-11-09T22:35:39.837Z,10.59
2022-11-09T22:38:25.040Z,10.56
2022-11-09T22:41:12.909Z,10.55
2022-11-09T22:43:58.174Z,10.51
2022-11-09T22:46:43.634Z,10.37
2022-11-09T22:49:28.930Z,10.42
2022-11-09T22:52:14.013Z,10.36
2022-11-09T22:54:58.945Z,10.38
2022-11-09T22:57:43.914Z,10.33
2022-11-09T23:00:28.931Z,10.23
2022-11-09T23:03:14.565Z,10.24
2022-11-09T23:06:05.819Z,10.17
2022-11-09T23:08:51.279Z,10.26
2022-11-09T23:11:36.529Z,10.34
2022-11-09T23:14:41.659Z,10.30
2022-11-09T23:17:45.401Z,10.18
2022-11-09T23:20:35.468Z,10.24
2022-11-09T23:23:21.567Z,10.32
2022-11-09T23:26:07.905Z,10.39
2022-11-09T23:28:53.334Z,10.28
2022-11-09T23:31:38.267Z,10.36
2022-11-09T23:34:23.315Z,10.39
2022-11-09T23:37:08.538Z,10.26
2022-11-09T23:39:53.801Z,10.34
2022-11-09T23:42:38.766Z,10.36
2022-11-09T23:45:23.759Z,10.39
2022-11-09T23:48:15.187Z,10.46
2022-11-09T23:51:01.806Z,10.44
2022-11-09T23:53:47.187Z,10.41
2022-11-09T23:56:32.309Z,10.35
2022-11-09T23:59:17.595Z,10.37
